Time;durP1;ratioP1;P1;durP2;ratioP2;P2;SDS_P1;SDS_P2;PMS_P1;PMS_P2;Temp;Humidity;BMP_temperature;BMP_pressure;BME280_temperature;BME280_humidity;BME280_pressure;Samples;Min_cycle;Max_cycle;Signal;HPM_P1;HPM_P2
2022/01/14 00:00:02;;;;;;;3.80;3.50;;;17.50;64.10;;;;;;4995629;28;20124;-22
2022/01/14 00:02:28;;;;;;;3.80;3.50;;;17.50;64.10;;;;;;4994866;28;20038;-21
2022/01/14 00:04:53;;;;;;;3.70;3.50;;;17.50;64.20;;;;;;4994752;28;20050;-21
2022/01/14 00:07:20;;;;;;;3.97;3.72;;;17.40;64.10;;;;;;4995433;28;20121;-22
2022/01/14 00:09:47;;;;;;;3.40;3.17;;;17.40;64.10;;;;;;4994776;28;20058;-22
2022/01/14 00:12:17;;;;;;;3.53;3.33;;;17.50;64.00;;;;;;4995422;28;20050;-22
2022/01/14 00:14:59;;;;;;;3.50;3.28;;;17.40;64.10;;;;;;4994926;28;20045;-19
2022/01/14 00:17:24;;;;;;;3.05;2.85;;;17.40;64.10;;;;;;4994654;28;20049;-22
2022/01/14 00:19:50;;;;;;;3.97;3.70;;;17.40;64.20;;;;;;4994746;28;20046;-22
2022/01/14 00:22:17;;;;;;;3.80;3.60;;;17.50;64.00;;;;;;5001427;28;20517;-19
2022/01/14 00:35:25;;;;;;;3.80;3.53;;;17.40;64.00;;;;;;4998784;28;20055;-21
2022/01/14 00:37:51;;;;;;;3.60;3.17;;;17.40;64.00;;;;;;4998139;28;20046;-22
2022/01/14 00:40:17;;;;;;;3.63;3.42;;;17.40;64.10;;;;;;4998281;28;20094;-21
2022/01/14 00:42:42;;;;;;;2.92;2.72;;;17.40;64.00;;;;;;4998072;28;20046;-21
2022/01/14 00:45:10;;;;;;;3.08;2.88;;;17.40;64.10;;;;;;4997914;28;20046;-21
2022/01/14 00:47:37;;;;;;;3.25;3.05;;;17.30;64.00;;;;;;4997898;28;20042;-18
2022/01/14 00:50:04;;;;;;;3.20;3.00;;;17.30;64.00;;;;;;4998678;28;20038;-20
2022/01/14 00:52:30;;;;;;;3.20;3.00;;;17.30;64.00;;;;;;4997776;28;20058;-19
2022/01/14 00:54:56;;;;;;;2.83;2.63;;;17.30;64.20;;;;;;4997716;28;20062;-21
2022/01/14 00:59:14;;;;;;;3.10;2.90;;;17.30;64.00;;;;;;4997518;28;20141;-21
2022/01/14 01:00:13;;;;;;;2.65;2.55;;;17.30;63.80;;;;;;4997396;28;20046;-21
2022/01/14 01:02:39;;;;;;;3.22;3.03;;;17.30;64.00;;;;;;4997180;28;20046;-21
2022/01/14 01:05:05;;;;;;;3.15;2.95;;;17.30;63.90;;;;;;4998278;28;20456;-22
2022/01/14 01:07:30;;;;;;;2.58;2.47;;;17.30;64.00;;;;;;4998451;28;20049;-22
2022/01/14 01:09:56;;;;;;;2.80;2.70;;;17.30;64.00;;;;;;4996283;28;20054;-21
2022/01/14 01:12:42;;;;;;;3.25;3.05;;;17.30;63.90;;;;;;4997491;28;20557;-19
2022/01/14 01:15:12;;;;;;;2.88;2.70;;;17.30;64.00;;;;;;4997533;28;20046;-22
2022/01/14 01:17:38;;;;;;;2.88;2.67;;;17.30;64.00;;;;;;4997391;28;20061;-22
2022/01/14 01:20:12;;;;;;;2.92;2.72;;;17.30;63.90;;;;;;4998089;28;20047;-19
2022/01/14 01:22:37;;;;;;;2.60;2.50;;;17.30;64.00;;;;;;4997406;28;20046;-21
2022/01/14 01:25:03;;;;;;;2.88;2.67;;;17.20;64.00;;;;;;4996138;28;20057;-21
2022/01/14 01:27:31;;;;;;;2.80;2.67;;;17.20;64.00;;;;;;4996111;28;20054;-21
2022/01/14 01:30:12;;;;;;;2.85;2.70;;;17.20;64.20;;;;;;4977458;28;20081;-20
2022/01/14 01:32:38;;;;;;;3.00;2.80;;;17.20;64.20;;;;;;4994405;28;20511;-20
2022/01/14 01:35:04;;;;;;;3.20;3.00;;;17.20;64.20;;;;;;5004873;28;20065;-22
2022/01/14 01:37:30;;;;;;;3.58;3.38;;;17.20;64.20;;;;;;4997556;28;20096;-20
2022/01/14 01:39:55;;;;;;;2.63;2.47;;;17.20;64.00;;;;;;4995816;28;20145;-22
2022/01/14 01:42:26;;;;;;;2.55;2.45;;;17.20;64.20;;;;;;4997030;28;20046;-21
2022/01/14 01:44:52;;;;;;;2.55;2.45;;;17.10;64.20;;;;;;4995582;28;20108;-21
2022/01/14 01:47:20;;;;;;;2.53;2.42;;;17.20;64.10;;;;;;4996766;28;20046;-22
2022/01/14 01:49:46;;;;;;;3.53;3.33;;;17.10;64.10;;;;;;4996887;28;20058;-22
2022/01/14 01:52:11;;;;;;;2.88;2.67;;;17.10;64.10;;;;;;4997565;28;20046;-21
2022/01/14 01:54:37;;;;;;;2.42;2.33;;;17.10;64.10;;;;;;4996367;28;20117;-21
2022/01/14 01:57:03;;;;;;;2.60;2.40;;;17.10;64.20;;;;;;4997230;28;20141;-22
2022/01/14 01:59:29;;;;;;;2.53;2.28;;;17.10;64.10;;;;;;4997290;28;20381;-21
2022/01/14 02:01:59;;;;;;;2.75;2.55;;;17.10;64.20;;;;;;4995994;28;20044;-21
2022/01/14 02:04:24;;;;;;;2.67;2.58;;;17.10;64.20;;;;;;5002481;28;20042;-21
2022/01/14 02:06:51;;;;;;;2.42;2.33;;;17.10;64.30;;;;;;5016175;28;20511;-21
2022/01/14 02:09:17;;;;;;;2.50;2.30;;;17.00;64.20;;;;;;5016073;28;20077;-20
2022/01/14 02:11:42;;;;;;;2.78;2.67;;;17.10;64.30;;;;;;5015916;28;20045;-18
2022/01/14 02:14:27;;;;;;;2.10;2.00;;;17.10;64.20;;;;;;5015329;28;20410;-19
2022/01/14 02:19:30;;;;;;;2.80;2.70;;;17.10;64.30;;;;;;5005451;28;20065;-19
2022/01/14 02:22:11;;;;;;;3.03;2.92;;;17.00;64.20;;;;;;5015344;28;20152;-20
2022/01/14 02:27:07;;;;;;;2.55;2.40;;;17.00;64.20;;;;;;5015947;28;20046;-22
2022/01/14 02:29:33;;;;;;;2.35;2.25;;;17.00;64.30;;;;;;5016372;28;20502;-23
2022/01/14 02:31:58;;;;;;;2.70;2.50;;;17.00;64.20;;;;;;5015425;28;20131;-21
2022/01/14 02:34:24;;;;;;;2.88;2.67;;;17.10;64.20;;;;;;5015908;28;20045;-22
2022/01/14 02:36:50;;;;;;;2.38;2.28;;;17.00;64.20;;;;;;5015192;28;20046;-19
2022/01/14 02:39:16;;;;;;;2.90;2.70;;;17.00;64.00;;;;;;5015725;28;20095;-19
2022/01/14 02:41:43;;;;;;;2.65;2.55;;;17.00;64.00;;;;;;5014739;28;20041;-20
2022/01/14 02:44:18;;;;;;;2.38;2.28;;;17.00;64.10;;;;;;5016049;28;20042;-19
2022/01/14 02:46:52;;;;;;;2.42;2.33;;;17.00;64.20;;;;;;5015269;28;20050;-22
2022/01/14 02:49:18;;;;;;;2.72;2.63;;;17.00;64.20;;;;;;5016176;28;20128;-22
2022/01/14 02:51:44;;;;;;;2.80;2.60;;;17.00;64.10;;;;;;5014570;28;20048;-22
2022/01/14 02:54:15;;;;;;;2.40;2.30;;;17.00;64.00;;;;;;5015368;28;20042;-21
2022/01/14 02:56:46;;;;;;;2.97;2.78;;;17.00;64.00;;;;;;5014697;28;20626;-19
2022/01/14 02:59:12;;;;;;;2.47;2.38;;;17.00;64.10;;;;;;5015227;28;20046;-21
2022/01/14 03:01:37;;;;;;;2.25;2.15;;;17.00;64.10;;;;;;5014401;28;20049;-22
2022/01/14 03:04:03;;;;;;;2.42;2.33;;;17.00;64.20;;;;;;5015032;28;20042;-21
2022/01/14 03:06:29;;;;;;;2.50;2.40;;;17.00;64.00;;;;;;5015303;28;20045;-22
2022/01/14 03:08:56;;;;;;;2.35;2.25;;;17.00;64.00;;;;;;5015062;28;20041;-21
2022/01/14 03:11:40;;;;;;;2.50;2.40;;;17.00;64.00;;;;;;5014196;28;20068;-22
2022/01/14 03:14:06;;;;;;;2.73;2.50;;;17.00;64.00;;;;;;4981150;28;20043;-21
2022/01/14 03:16:38;;;;;;;2.28;2.17;;;17.00;64.10;;;;;;4991176;28;20097;-19
2022/01/14 03:19:12;;;;;;;2.40;2.30;;;17.00;64.10;;;;;;4976058;28;20047;-22
2022/01/14 03:21:42;;;;;;;2.75;2.55;;;16.90;64.00;;;;;;4995526;28;20470;-19
2022/01/14 03:25:35;;;;;;;2.70;2.60;;;17.00;64.00;;;;;;4995457;28;20046;-21
2022/01/14 03:27:04;;;;;;;2.47;2.38;;;17.00;64.00;;;;;;4995044;28;20503;-22
2022/01/14 03:29:29;;;;;;;2.47;2.30;;;16.90;64.00;;;;;;4995909;28;20108;-21
2022/01/14 03:31:55;;;;;;;2.38;2.25;;;17.00;64.10;;;;;;4995115;28;20038;-21
2022/01/14 03:34:20;;;;;;;2.10;2.00;;;16.90;64.10;;;;;;4992619;28;20050;-19
2022/01/14 03:36:46;;;;;;;2.40;2.30;;;17.00;64.10;;;;;;4993726;28;20122;-20
2022/01/14 03:39:12;;;;;;;2.75;2.55;;;16.90;64.10;;;;;;4998241;28;20042;-19
2022/01/14 03:41:37;;;;;;;2.53;2.42;;;17.00;64.00;;;;;;5015386;28;20045;-20
2022/01/14 03:44:03;;;;;;;2.42;2.33;;;17.00;64.00;;;;;;5014761;28;20125;-20
2022/01/14 03:46:29;;;;;;;2.30;2.20;;;16.90;64.00;;;;;;5015181;28;20058;-21
2022/01/14 03:48:54;;;;;;;2.38;2.28;;;16.90;64.00;;;;;;5014360;28;20078;-21
2022/01/14 03:51:20;;;;;;;2.08;1.98;;;16.90;63.90;;;;;;5015331;28;20490;-21
2022/01/14 03:53:47;;;;;;;2.20;2.10;;;16.90;64.00;;;;;;5014246;28;20052;-21
2022/01/14 03:56:13;;;;;;;2.20;2.10;;;16.90;63.90;;;;;;5014978;28;20053;-21
2022/01/14 03:58:40;;;;;;;2.30;2.20;;;16.90;64.10;;;;;;5015243;28;20069;-20
2022/01/14 04:01:07;;;;;;;2.30;2.20;;;16.90;64.10;;;;;;5014683;28;20100;-21
2022/01/14 04:03:33;;;;;;;2.25;2.15;;;16.90;63.90;;;;;;5016933;28;20048;-21
2022/01/14 04:05:58;;;;;;;2.20;2.10;;;16.90;64.00;;;;;;5018418;28;20129;-21
2022/01/14 04:08:24;;;;;;;2.22;2.13;;;16.90;64.00;;;;;;5018294;28;20045;-21
2022/01/14 04:10:52;;;;;;;2.10;2.00;;;16.80;64.00;;;;;;5017890;28;20088;-22
2022/01/14 04:13:22;;;;;;;2.00;1.90;;;16.90;64.20;;;;;;5017011;28;20089;-22
2022/01/14 04:15:48;;;;;;;2.38;2.28;;;16.90;64.00;;;;;;5018121;28;20120;-21
2022/01/14 04:18:16;;;;;;;2.15;2.05;;;16.90;64.00;;;;;;5018738;28;20049;-21
2022/01/14 04:20:44;;;;;;;2.42;2.33;;;16.80;64.00;;;;;;5018767;28;20613;-19
2022/01/14 04:23:13;;;;;;;2.00;1.90;;;16.90;64.00;;;;;;5018114;28;20037;-20
2022/01/14 04:25:38;;;;;;;2.13;2.03;;;16.80;64.00;;;;;;5018680;28;20430;-19
2022/01/14 04:28:04;;;;;;;2.28;2.17;;;16.90;64.00;;;;;;5017420;28;20057;-21
2022/01/14 04:30:30;;;;;;;2.20;2.10;;;16.90;63.90;;;;;;5017930;28;20054;-19
2022/01/14 04:32:56;;;;;;;2.40;2.30;;;16.90;63.90;;;;;;5017783;28;20048;-21
2022/01/14 04:35:22;;;;;;;2.30;2.20;;;16.90;63.80;;;;;;5018358;28;20041;-22
2022/01/14 04:37:48;;;;;;;2.28;2.17;;;16.80;63.80;;;;;;5017285;28;20057;-20
2022/01/14 04:40:14;;;;;;;1.70;1.60;;;16.90;63.90;;;;;;5017519;28;20050;-20
2022/01/14 04:42:43;;;;;;;2.45;2.35;;;16.90;63.90;;;;;;5025606;28;20050;-22
2022/01/14 04:45:42;;;;;;;2.25;2.15;;;16.80;63.90;;;;;;4998146;28;20117;-21
2022/01/14 04:48:09;;;;;;;2.10;2.00;;;16.80;63.90;;;;;;4997976;28;20060;-21
2022/01/14 04:50:35;;;;;;;2.10;2.00;;;16.80;64.00;;;;;;4998614;28;20125;-21
2022/01/14 04:53:00;;;;;;;2.78;2.58;;;16.80;63.90;;;;;;4997535;28;20068;-20
2022/01/14 04:55:26;;;;;;;1.88;1.77;;;16.80;63.90;;;;;;5013437;28;20054;-22
2022/01/14 04:57:52;;;;;;;1.92;1.83;;;16.80;63.80;;;;;;4997788;28;20088;-22
2022/01/14 05:00:20;;;;;;;2.20;2.10;;;16.80;64.00;;;;;;4998419;28;20411;-22
2022/01/14 05:02:46;;;;;;;2.33;2.22;;;16.80;63.90;;;;;;4998203;28;20043;-22
2022/01/14 05:05:11;;;;;;;2.10;2.00;;;16.80;64.00;;;;;;4997859;28;20054;-21
2022/01/14 05:07:38;;;;;;;1.95;1.85;;;16.80;63.90;;;;;;4998912;28;20526;-21
2022/01/14 05:12:30;;;;;;;2.25;2.15;;;16.80;63.80;;;;;;4997914;28;20042;-21
2022/01/14 05:14:56;;;;;;;2.33;2.13;;;16.80;63.70;;;;;;4995686;28;20066;-21
2022/01/14 05:17:22;;;;;;;2.17;2.08;;;16.80;63.90;;;;;;4997921;28;20050;-20
2022/01/14 05:19:47;;;;;;;2.30;2.10;;;16.70;64.00;;;;;;4998108;28;20045;-20
2022/01/14 05:22:13;;;;;;;2.10;2.00;;;16.70;63.90;;;;;;4997428;28;20518;-22
2022/01/14 05:24:39;;;;;;;1.95;1.85;;;16.80;63.90;;;;;;4997995;28;20047;-22
2022/01/14 05:27:04;;;;;;;2.15;2.05;;;16.80;63.80;;;;;;4996758;28;20051;-22
2022/01/14 05:29:30;;;;;;;2.30;2.20;;;16.70;63.90;;;;;;4997302;28;20050;-21
2022/01/14 05:32:02;;;;;;;2.20;2.10;;;16.70;63.90;;;;;;4995832;28;20184;-22
2022/01/14 05:34:32;;;;;;;2.30;2.20;;;16.70;63.80;;;;;;4997695;28;20050;-21
2022/01/14 05:36:58;;;;;;;2.30;2.20;;;16.70;63.80;;;;;;4996690;28;20050;-21
2022/01/14 05:39:24;;;;;;;2.20;2.10;;;16.80;64.50;;;;;;4994311;28;20041;-22
2022/01/14 05:41:50;;;;;;;2.28;2.17;;;16.70;63.70;;;;;;4995529;28;20046;-21
2022/01/14 05:44:16;;;;;;;1.88;1.77;;;16.70;63.80;;;;;;5003080;28;20092;-21
2022/01/14 05:46:41;;;;;;;2.35;2.22;;;16.70;63.70;;;;;;5016366;28;20045;-21
2022/01/14 05:49:07;;;;;;;2.40;2.30;;;16.70;63.70;;;;;;5016459;28;20084;-18
2022/01/14 05:51:32;;;;;;;2.33;2.22;;;16.70;63.70;;;;;;5002158;28;20073;-19
2022/01/14 05:53:58;;;;;;;2.25;2.15;;;16.70;63.60;;;;;;4996789;28;20125;-21
2022/01/14 05:56:24;;;;;;;2.03;1.92;;;16.70;63.60;;;;;;4996689;28;20054;-21
2022/01/14 05:58:49;;;;;;;2.20;2.00;;;16.70;63.70;;;;;;4997322;28;20043;-21
2022/01/14 06:01:15;;;;;;;2.25;2.15;;;16.70;63.80;;;;;;4996562;28;20561;-21
2022/01/14 06:03:41;;;;;;;2.15;2.05;;;16.70;63.70;;;;;;4996663;28;20418;-19
2022/01/14 06:06:06;;;;;;;2.25;2.15;;;16.70;63.90;;;;;;5033480;28;20085;-19
2022/01/14 06:08:32;;;;;;;2.20;2.10;;;16.70;63.90;;;;;;5019851;28;20045;-19
2022/01/14 06:10:57;;;;;;;2.13;2.03;;;16.70;63.90;;;;;;5015233;28;20105;-21
2022/01/14 06:13:23;;;;;;;2.65;2.55;;;16.70;63.80;;;;;;4996950;28;20045;-19
2022/01/14 06:15:49;;;;;;;2.20;2.10;;;16.70;64.00;;;;;;4993547;28;20062;-21
2022/01/14 06:18:14;;;;;;;2.40;2.30;;;16.70;64.00;;;;;;4984097;28;20047;-20
2022/01/14 06:20:40;;;;;;;2.00;1.90;;;16.70;64.00;;;;;;4985675;28;20042;-21
2022/01/14 06:23:05;;;;;;;2.60;2.50;;;16.70;64.00;;;;;;4993537;28;20050;-21
2022/01/14 06:25:31;;;;;;;2.30;2.20;;;16.70;64.00;;;;;;5002543;28;20058;-21
2022/01/14 06:27:56;;;;;;;2.42;2.30;;;16.60;63.80;;;;;;4996164;28;20097;-21
2022/01/14 06:30:22;;;;;;;1.92;1.83;;;16.60;63.80;;;;;;4994045;28;20053;-20
2022/01/14 06:32:51;;;;;;;2.33;2.22;;;16.60;63.90;;;;;;4998308;28;20050;-24
2022/01/14 06:35:17;;;;;;;2.30;2.20;;;16.60;63.80;;;;;;4994197;28;20137;-18
2022/01/14 06:37:42;;;;;;;2.40;2.30;;;16.60;63.90;;;;;;4996418;28;20065;-22
2022/01/14 06:40:09;;;;;;;2.10;2.00;;;16.60;63.90;;;;;;4995200;28;20129;-21
2022/01/14 06:42:35;;;;;;;2.42;2.33;;;16.60;64.10;;;;;;4994328;28;20046;-19
2022/01/14 06:45:01;;;;;;;2.25;2.15;;;16.70;64.00;;;;;;4995125;28;20488;-19
2022/01/14 06:47:26;;;;;;;2.70;2.50;;;16.70;63.80;;;;;;4996229;28;20065;-19
2022/01/14 06:49:52;;;;;;;2.08;1.98;;;16.60;63.80;;;;;;4996012;28;20129;-22
2022/01/14 06:52:18;;;;;;;2.58;2.47;;;16.60;63.80;;;;;;5015558;28;20042;-21
2022/01/14 06:54:44;;;;;;;2.50;2.40;;;16.60;63.70;;;;;;5015185;28;20045;-21
2022/01/14 06:57:09;;;;;;;2.50;2.40;;;16.60;65.00;;;;;;4996792;28;20050;-22
2022/01/14 06:59:35;;;;;;;2.00;1.90;;;16.60;66.20;;;;;;4996111;28;20385;-19
2022/01/14 07:02:00;;;;;;;3.17;2.88;;;16.70;66.00;;;;;;4995494;28;20038;-21
2022/01/14 07:04:26;;;;;;;3.90;2.45;;;16.60;66.10;;;;;;4995614;28;20137;-21
2022/01/14 07:06:51;;;;;;;2.50;2.30;;;16.70;66.00;;;;;;4995459;28;20038;-20
2022/01/14 07:09:17;;;;;;;2.20;2.10;;;16.70;65.20;;;;;;4994737;28;20046;-20
2022/01/14 07:11:47;;;;;;;4.47;2.78;;;16.70;65.90;;;;;;4995731;28;20046;-20
2022/01/14 07:14:13;;;;;;;2.20;2.10;;;16.70;66.00;;;;;;4994323;28;20085;-19
2022/01/14 07:16:38;;;;;;;10.05;7.15;;;16.70;66.20;;;;;;4993326;28;20074;-20
2022/01/14 07:19:04;;;;;;;18.05;10.93;;;16.70;65.70;;;;;;4992436;28;20964;-18
2022/01/14 07:21:30;;;;;;;27.35;14.32;;;16.70;66.40;;;;;;4992467;28;20042;-20
2022/01/14 07:23:55;;;;;;;27.98;16.10;;;16.70;66.10;;;;;;4991726;28;20054;-19
2022/01/14 07:26:21;;;;;;;33.95;18.48;;;16.80;65.80;;;;;;5003751;28;20129;-17
2022/01/14 07:28:47;;;;;;;34.08;18.75;;;16.70;65.70;;;;;;4995809;28;20047;-18
2022/01/14 07:31:12;;;;;;;37.58;19.33;;;16.70;65.90;;;;;;4994696;28;20111;-18
2022/01/14 07:33:38;;;;;;;37.28;18.63;;;16.70;65.80;;;;;;4990907;28;20065;-17
2022/01/14 07:36:04;;;;;;;40.47;19.48;;;16.70;66.00;;;;;;4975621;28;20046;-18
2022/01/14 07:38:29;;;;;;;37.83;18.55;;;16.60;66.00;;;;;;4987557;28;20101;-20
2022/01/14 07:40:55;;;;;;;37.25;18.27;;;16.70;66.40;;;;;;4998206;28;20081;-19
2022/01/14 07:43:21;;;;;;;39.10;18.02;;;16.70;66.80;;;;;;5017669;28;20060;-18
2022/01/14 07:45:47;;;;;;;37.05;17.92;;;16.70;66.80;;;;;;5019257;28;20042;-19
2022/01/14 07:48:13;;;;;;;44.47;17.80;;;16.70;66.80;;;;;;5018441;28;20116;-19
2022/01/14 07:50:38;;;;;;;32.55;16.85;;;16.70;66.50;;;;;;5018796;28;20096;-21
2022/01/14 07:53:04;;;;;;;35.03;17.73;;;16.70;66.30;;;;;;5017967;28;20057;-20
2022/01/14 07:55:30;;;;;;;39.85;17.35;;;16.70;66.30;;;;;;5018862;28;20279;-19
2022/01/14 07:57:55;;;;;;;35.17;17.38;;;16.70;66.20;;;;;;5018539;28;20077;-19
2022/01/14 08:00:21;;;;;;;31.73;16.23;;;16.60;66.10;;;;;;5018227;28;20042;-17
2022/01/14 08:02:47;;;;;;;33.08;16.75;;;16.60;66.00;;;;;;5018736;28;20072;-18
2022/01/14 08:05:15;;;;;;;28.55;15.60;;;16.60;65.90;;;;;;5018328;28;20539;-19
2022/01/14 08:07:45;;;;;;;28.83;15.45;;;16.70;65.90;;;;;;5018945;28;20050;-19
2022/01/14 08:10:12;;;;;;;34.47;16.27;;;16.60;65.80;;;;;;5018021;28;20038;-19
2022/01/14 08:12:38;;;;;;;28.50;16.10;;;16.60;65.70;;;;;;5018826;28;20132;-18
2022/01/14 08:15:04;;;;;;;29.42;15.88;;;16.60;65.80;;;;;;5018350;28;20076;-19
2022/01/14 08:17:31;;;;;;;30.27;16.05;;;16.60;65.70;;;;;;5018542;28;20042;-19
2022/01/14 08:19:57;;;;;;;28.60;15.80;;;16.60;65.70;;;;;;5018792;28;20038;-19
2022/01/14 08:22:22;;;;;;;27.10;14.60;;;16.60;65.60;;;;;;5018089;28;20076;-18
2022/01/14 08:24:48;;;;;;;29.63;14.10;;;16.60;65.60;;;;;;5018668;28;20099;-19
2022/01/14 08:27:13;;;;;;;27.63;13.90;;;16.60;65.50;;;;;;5017831;28;20046;-18
2022/01/14 08:29:39;;;;;;;26.13;14.30;;;16.60;65.50;;;;;;5018626;28;20410;-20
2022/01/14 08:32:05;;;;;;;26.20;14.32;;;16.50;65.40;;;;;;5017640;28;20033;-19
2022/01/14 08:34:30;;;;;;;26.40;13.40;;;16.50;65.40;;;;;;5018436;28;20125;-17
2022/01/14 08:36:56;;;;;;;22.70;13.20;;;16.50;65.40;;;;;;5018504;28;20080;-19
2022/01/14 08:39:22;;;;;;;21.50;12.60;;;16.60;65.30;;;;;;5017637;28;20283;-20
2022/01/14 08:41:47;;;;;;;24.70;13.05;;;16.60;65.20;;;;;;5015991;28;20092;-18
2022/01/14 08:44:14;;;;;;;22.25;13.05;;;16.50;65.10;;;;;;5017646;28;20042;-18
2022/01/14 08:46:43;;;;;;;20.75;12.18;;;16.60;65.10;;;;;;5018163;28;20038;-19
2022/01/14 08:49:09;;;;;;;22.67;12.88;;;16.50;65.10;;;;;;5016415;28;20046;-19
2022/01/14 08:51:36;;;;;;;23.13;13.55;;;16.50;65.00;;;;;;5018091;28;20044;-19
2022/01/14 08:54:02;;;;;;;21.70;12.40;;;16.50;65.10;;;;;;5017445;28;20038;-20
2022/01/14 08:56:30;;;;;;;23.50;12.40;;;16.50;64.80;;;;;;5017725;28;20048;-19
2022/01/14 08:58:55;;;;;;;21.33;12.40;;;16.50;64.90;;;;;;5018069;28;20433;-19
2022/01/14 09:01:21;;;;;;;20.98;11.73;;;16.60;64.90;;;;;;5017121;28;20129;-20
2022/01/14 09:03:46;;;;;;;19.67;11.63;;;16.60;64.90;;;;;;5018002;28;20050;-19
2022/01/14 09:06:12;;;;;;;18.45;11.48;;;16.60;64.90;;;;;;5017226;28;20053;-19
2022/01/14 09:08:37;;;;;;;19.17;11.40;;;16.50;64.80;;;;;;5017890;28;20089;-19
2022/01/14 09:11:03;;;;;;;18.77;11.70;;;16.50;65.00;;;;;;5017012;28;20098;-19
2022/01/14 09:13:29;;;;;;;18.55;11.55;;;16.50;65.10;;;;;;5017648;28;20046;-21
2022/01/14 09:15:56;;;;;;;18.35;10.57;;;16.50;65.00;;;;;;5017602;28;20128;-19
2022/01/14 09:18:21;;;;;;;20.20;11.95;;;16.50;64.80;;;;;;5016777;28;20049;-18
2022/01/14 09:20:47;;;;;;;18.90;10.50;;;16.50;64.60;;;;;;5017719;28;20042;-20
2022/01/14 09:23:17;;;;;;;15.00;10.13;;;16.50;64.80;;;;;;5016972;28;20050;-17
2022/01/14 09:25:43;;;;;;;16.60;10.20;;;16.40;64.80;;;;;;5017625;28;20129;-18
2022/01/14 09:28:08;;;;;;;18.00;10.70;;;16.50;64.80;;;;;;5016747;28;20088;-19
2022/01/14 09:30:34;;;;;;;18.73;11.07;;;16.50;64.70;;;;;;5017363;28;20045;-19
2022/01/14 09:33:00;;;;;;;16.17;10.50;;;16.50;64.60;;;;;;5017152;28;20127;-18
2022/01/14 09:35:25;;;;;;;14.13;9.40;;;16.50;64.60;;;;;;5016668;28;20050;-19
2022/01/14 09:37:51;;;;;;;13.30;9.25;;;16.40;64.50;;;;;;5017292;28;20053;-18
2022/01/14 09:40:17;;;;;;;13.15;8.82;;;16.50;64.40;;;;;;4998609;28;20106;-19
2022/01/14 09:42:49;;;;;;;15.85;10.35;;;16.50;64.40;;;;;;5008340;28;20128;-18
2022/01/14 09:45:15;;;;;;;13.30;9.27;;;16.50;64.40;;;;;;5016503;28;20038;-18
2022/01/14 09:47:42;;;;;;;16.20;9.70;;;16.40;64.40;;;;;;5003222;28;20542;-17
2022/01/14 09:50:08;;;;;;;17.30;10.43;;;16.50;64.30;;;;;;4996426;28;20048;-18
2022/01/14 09:52:35;;;;;;;12.30;8.52;;;16.40;64.40;;;;;;4997573;28;20062;-19
2022/01/14 09:55:01;;;;;;;14.00;9.57;;;16.50;64.30;;;;;;4993642;28;20046;-19
2022/01/14 09:57:26;;;;;;;11.80;8.73;;;16.40;64.80;;;;;;4991098;28;20043;-18
2022/01/14 09:59:52;;;;;;;13.50;8.90;;;16.40;64.40;;;;;;4991767;28;20493;-20
2022/01/14 10:02:28;;;;;;;14.32;9.25;;;16.40;64.40;;;;;;4994814;28;20133;-17
2022/01/14 10:04:54;;;;;;;15.05;9.43;;;16.40;64.40;;;;;;4996490;28;20082;-19
2022/01/14 10:07:19;;;;;;;13.18;8.60;;;16.40;64.50;;;;;;4996524;28;20042;-20
2022/01/14 10:09:53;;;;;;;12.55;8.90;;;16.40;64.50;;;;;;4995365;28;20054;-19
2022/01/14 10:12:20;;;;;;;11.90;8.10;;;16.40;64.60;;;;;;4995629;28;20046;-18
2022/01/14 10:14:55;;;;;;;13.10;8.90;;;16.40;64.60;;;;;;4997003;28;20403;-18
2022/01/14 10:17:21;;;;;;;12.38;8.43;;;16.40;64.70;;;;;;4988638;28;20125;-18
2022/01/14 10:19:48;;;;;;;10.95;7.90;;;16.40;64.50;;;;;;4976819;28;20069;-22
2022/01/14 10:22:29;;;;;;;12.15;7.95;;;16.40;64.40;;;;;;4993025;28;20414;-20
2022/01/14 10:25:07;;;;;;;11.27;7.57;;;16.40;64.40;;;;;;5000298;28;20038;-17
2022/01/14 10:27:40;;;;;;;12.65;8.27;;;16.40;64.60;;;;;;5009379;28;20050;-20
2022/01/14 10:30:27;;;;;;;11.20;8.25;;;16.40;64.60;;;;;;5015108;28;20454;-19
2022/01/14 10:32:55;;;;;;;15.77;9.57;;;16.50;64.40;;;;;;5006794;28;20111;-19
2022/01/14 10:35:22;;;;;;;14.45;10.40;;;16.50;64.30;;;;;;4994230;28;20080;-18
2022/01/14 10:37:47;;;;;;;15.20;10.50;;;16.50;64.40;;;;;;4988548;28;20047;-17
2022/01/14 10:40:21;;;;;;;16.38;10.30;;;16.40;64.50;;;;;;4993343;28;20050;-20
2022/01/14 10:42:49;;;;;;;16.05;11.25;;;16.50;64.80;;;;;;4994862;28;20050;-21
2022/01/14 10:45:22;;;;;;;19.45;11.85;;;16.40;64.80;;;;;;4994982;28;20046;-19
2022/01/14 10:47:51;;;;;;;15.70;11.10;;;16.40;64.90;;;;;;4994700;28;20046;-20
2022/01/14 10:50:16;;;;;;;17.48;10.82;;;16.50;64.80;;;;;;4994474;28;20628;-20
2022/01/14 10:52:42;;;;;;;19.75;11.60;;;16.50;64.80;;;;;;4995293;28;20046;-20
2022/01/14 10:55:07;;;;;;;16.38;11.43;;;16.50;64.80;;;;;;4993477;28;20049;-17
2022/01/14 10:57:33;;;;;;;15.40;10.90;;;16.50;64.80;;;;;;4996092;28;20042;-19
2022/01/14 11:00:16;;;;;;;16.08;11.18;;;16.50;64.90;;;;;;4995353;28;20499;-19
2022/01/14 11:02:45;;;;;;;14.45;10.30;;;16.50;65.10;;;;;;5005871;28;20529;-20
2022/01/14 11:05:18;;;;;;;14.65;10.10;;;16.50;65.30;;;;;;5014233;28;20054;-20
2022/01/14 11:07:46;;;;;;;15.82;10.15;;;16.50;65.40;;;;;;4995954;28;20042;-19
2022/01/14 11:10:19;;;;;;;15.20;10.93;;;16.40;65.10;;;;;;4995384;28;20410;-20
2022/01/14 11:12:45;;;;;;;17.23;11.68;;;16.50;65.20;;;;;;4994625;28;20149;-18
2022/01/14 11:15:11;;;;;;;15.48;11.93;;;16.40;65.60;;;;;;4995308;28;20038;-19
2022/01/14 11:17:38;;;;;;;17.35;11.02;;;16.40;65.40;;;;;;5005460;28;20088;-19
2022/01/14 11:20:04;;;;;;;15.85;12.38;;;16.40;65.40;;;;;;5015296;28;20057;-21
2022/01/14 11:25:14;;;;;;;15.80;10.15;;;16.40;65.70;;;;;;5014957;28;20522;-20
2022/01/14 11:27:40;;;;;;;21.17;13.57;;;16.40;65.70;;;;;;5013947;28;20046;-19
2022/01/14 11:30:12;;;;;;;19.15;12.80;;;16.40;65.60;;;;;;5014045;28;20182;-20
2022/01/14 11:32:57;;;;;;;26.25;14.50;;;16.40;65.50;;;;;;4664791;28;10000664;-20
2022/01/14 11:35:24;;;;;;;24.70;15.48;;;16.40;65.40;;;;;;5002783;28;20108;-18
2022/01/14 11:37:50;;;;;;;22.15;14.65;;;16.40;65.70;;;;;;5010688;28;20048;-19
2022/01/14 11:40:16;;;;;;;25.42;16.27;;;16.40;65.60;;;;;;5010511;28;20125;-17
2022/01/14 11:42:59;;;;;;;21.77;15.10;;;16.40;66.10;;;;;;5010936;28;20135;-20
2022/01/14 11:45:42;;;;;;;24.75;16.85;;;16.40;65.70;;;;;;5010639;28;20038;-18
2022/01/14 11:48:26;;;;;;;24.75;15.65;;;16.40;65.90;;;;;;4999748;28;20473;-19
2022/01/14 11:50:52;;;;;;;32.05;18.95;;;16.40;65.90;;;;;;4995289;28;20043;-20
2022/01/14 11:53:50;;;;;;;26.40;16.15;;;16.40;65.80;;;;;;4989333;28;20428;-21
2022/01/14 11:56:31;;;;;;;26.05;16.70;;;16.40;65.80;;;;;;4993903;28;20050;-20
2022/01/14 11:59:18;;;;;;;24.38;16.23;;;16.50;65.60;;;;;;4991950;28;20046;-20
2022/01/14 12:01:45;;;;;;;23.92;16.40;;;16.50;65.90;;;;;;4990990;28;20057;-20
2022/01/14 12:04:11;;;;;;;21.90;15.90;;;16.50;65.60;;;;;;4991368;28;20084;-19
2022/01/14 12:06:53;;;;;;;23.33;15.02;;;16.50;65.60;;;;;;4990893;28;20531;-19
2022/01/14 12:09:24;;;;;;;20.92;15.43;;;16.50;65.50;;;;;;4989780;28;20545;-20
2022/01/14 12:12:26;;;;;;;22.02;14.70;;;16.50;65.50;;;;;;4991441;28;20053;-20
2022/01/14 12:15:03;;;;;;;20.92;15.02;;;16.50;65.40;;;;;;4977874;28;20135;-19
2022/01/14 12:17:40;;;;;;;22.98;14.45;;;16.50;65.30;;;;;;4986845;28;20411;-20
2022/01/14 12:20:12;;;;;;;20.75;15.82;;;16.50;65.50;;;;;;4990072;28;20042;-18
2022/01/14 12:22:40;;;;;;;24.75;16.30;;;16.60;65.70;;;;;;4990449;28;20055;-18
2022/01/14 12:25:06;;;;;;;19.88;14.32;;;16.50;65.80;;;;;;4994031;28;20073;-19
2022/01/14 12:27:45;;;;;;;22.20;14.70;;;16.40;65.90;;;;;;5012421;28;20045;-21
2022/01/14 12:30:20;;;;;;;17.80;13.25;;;16.40;65.70;;;;;;5014498;28;20136;-20
2022/01/14 12:32:53;;;;;;;20.50;14.13;;;16.40;65.80;;;;;;5012860;28;20511;-19
2022/01/14 12:35:21;;;;;;;19.77;14.05;;;16.40;65.70;;;;;;5005115;28;20049;-17
2022/01/14 12:37:51;;;;;;;19.85;14.65;;;16.40;66.30;;;;;;5014526;28;20050;-21
2022/01/14 12:40:19;;;;;;;18.50;13.13;;;16.40;66.00;;;;;;5005993;28;20408;-20
2022/01/14 12:42:56;;;;;;;19.35;14.00;;;16.40;65.90;;;;;;5013756;28;20053;-19
2022/01/14 12:45:52;;;;;;;21.58;14.13;;;16.40;65.90;;;;;;5013383;28;20042;-18
2022/01/14 12:48:37;;;;;;;22.35;15.13;;;16.40;65.80;;;;;;5013697;28;20057;-20
2022/01/14 12:51:03;;;;;;;;;;;16.40;66.00;;;;;;5012721;28;20519;-19
2022/01/14 12:53:29;;;;;;;20.80;15.30;;;16.50;65.90;;;;;;4997296;28;19918;-20
2022/01/14 12:55:54;;;;;;;18.67;14.50;;;16.60;65.90;;;;;;4996700;28;20503;-23
2022/01/14 12:58:20;;;;;;;19.50;14.57;;;16.60;65.80;;;;;;4985368;28;20129;-21
2022/01/14 13:00:45;;;;;;;21.42;15.60;;;16.60;65.90;;;;;;4986142;28;20414;-21
2022/01/14 13:03:12;;;;;;;21.73;14.52;;;16.60;65.70;;;;;;5012410;28;20093;-22